BAW9051 KJFK-MMAA
Flight info
| Callsign | BAW9051 |
|---|---|
| Flight time | 2h 45m |
| Altitude | 34000 |
| Route | SHIPP/M200F430PLUS DCT 35N075W 28N079W DCT JUNUR DCT 24N081W 23N090W DCT AVALI/N0473F350 DCT MEX/N0475F340 J21 ACA |
| Aircraft | CONC/H-SRWXY/C |
Departure
| Time | 2026-05-07 18:02 |
|---|---|
| Airport | John F. Kennedy International Airport (KJFK) |
Arrival
| Time | 2026-05-07 20:47 |
|---|---|
| Airport | General Juan N. Álvarez International Airport (MMAA) |
| Time | Latitude | Longitude | Altitude | Speed | Heading |
|---|---|---|---|---|---|
| 2026-05-07 17:36 | 40.64926 | -73.78424 | 27 ft | 0 kts | 76° |
| 2026-05-07 17:47 | 40.64924 | -73.78436 | 27 ft | 4 kts | 77° |
| 2026-05-07 17:48 | 40.64919 | -73.78471 | 27 ft | 4 kts | 74° |
| 2026-05-07 17:48 | 40.64922 | -73.78502 | 27 ft | 4 kts | 44° |
| 2026-05-07 17:48 | 40.64938 | -73.78520 | 27 ft | 3 kts | 4° |
| 2026-05-07 17:48 | 40.64938 | -73.78521 | 27 ft | 0 kts | 1° |
| 2026-05-07 17:52 | 40.64939 | -73.78521 | 27 ft | 0 kts | 1° |
| 2026-05-07 17:52 | 40.64950 | -73.78515 | 27 ft | 4 kts | 13° |
| 2026-05-07 17:52 | 40.64968 | -73.78510 | 27 ft | 1 kts | 13° |
| 2026-05-07 17:52 | 40.64993 | -73.78502 | 27 ft | 8 kts | 13° |
| 2026-05-07 17:53 | 40.65093 | -73.78471 | 27 ft | 19 kts | 13° |
| 2026-05-07 17:53 | 40.65200 | -73.78418 | 27 ft | 15 kts | 24° |
| 2026-05-07 17:53 | 40.65234 | -73.78321 | 27 ft | 12 kts | 104° |
| 2026-05-07 17:53 | 40.65188 | -73.78206 | 27 ft | 17 kts | 121° |
| 2026-05-07 17:54 | 40.65117 | -73.78048 | 27 ft | 23 kts | 120° |
| 2026-05-07 17:54 | 40.65028 | -73.77846 | 27 ft | 27 kts | 120° |
| 2026-05-07 17:54 | 40.64932 | -73.77630 | 27 ft | 27 kts | 120° |
| 2026-05-07 17:54 | 40.64837 | -73.77423 | 27 ft | 26 kts | 122° |
| 2026-05-07 17:55 | 40.64740 | -73.77219 | 27 ft | 26 kts | 121° |
| 2026-05-07 17:55 | 40.64614 | -73.77086 | 27 ft | 21 kts | 178° |
| 2026-05-07 17:55 | 40.64473 | -73.77091 | 27 ft | 19 kts | 187° |
| 2026-05-07 17:55 | 40.64373 | -73.77149 | 27 ft | 15 kts | 211° |
| 2026-05-07 17:56 | 40.64275 | -73.77226 | 27 ft | 17 kts | 211° |
| 2026-05-07 17:56 | 40.64165 | -73.77314 | 27 ft | 20 kts | 211° |
| 2026-05-07 17:56 | 40.64047 | -73.77401 | 27 ft | 19 kts | 208° |
| 2026-05-07 17:56 | 40.63936 | -73.77488 | 27 ft | 18 kts | 211° |
| 2026-05-07 17:57 | 40.63833 | -73.77571 | 27 ft | 17 kts | 211° |
| 2026-05-07 17:57 | 40.63773 | -73.77619 | 27 ft | 14 kts | 211° |
| 2026-05-07 17:57 | 40.63685 | -73.77690 | 27 ft | 8 kts | 210° |
| 2026-05-07 17:57 | 40.63627 | -73.77734 | 27 ft | 12 kts | 210° |
| 2026-05-07 17:58 | 40.63531 | -73.77808 | 27 ft | 20 kts | 210° |
| 2026-05-07 17:58 | 40.63412 | -73.77900 | 27 ft | 18 kts | 210° |
| 2026-05-07 17:58 | 40.63335 | -73.77861 | 28 ft | 9 kts | 123° |
| 2026-05-07 17:58 | 40.63308 | -73.77800 | 30 ft | 9 kts | 120° |
| 2026-05-07 17:59 | 40.63250 | -73.77672 | 30 ft | 25 kts | 120° |
| 2026-05-07 17:59 | 40.63150 | -73.77441 | 28 ft | 28 kts | 119° |
| 2026-05-07 17:59 | 40.63056 | -73.77242 | 28 ft | 23 kts | 124° |
| 2026-05-07 17:59 | 40.62995 | -73.77113 | 27 ft | 11 kts | 121° |
| 2026-05-07 18:00 | 40.62954 | -73.77085 | 27 ft | 6 kts | 176° |
| 2026-05-07 18:00 | 40.62910 | -73.77115 | 28 ft | 8 kts | 209° |
| 2026-05-07 18:00 | 40.62873 | -73.77147 | 28 ft | 5 kts | 221° |
| 2026-05-07 18:00 | 40.62841 | -73.77209 | 28 ft | 11 kts | 252° |
| 2026-05-07 18:01 | 40.62858 | -73.77289 | 29 ft | 7 kts | 307° |
| 2026-05-07 18:01 | 40.62882 | -73.77346 | 30 ft | 28 kts | 299° |
| 2026-05-07 18:01 | 40.63147 | -73.77940 | 31 ft | 122 kts | 301° |
| 2026-05-07 18:01 | 40.63735 | -73.79223 | 28 ft | 203 kts | 301° |
| 2026-05-07 18:02 | 40.65303 | -73.82790 | 680 ft | 268 kts | 303° |
| 2026-05-07 18:02 | 40.66094 | -73.84858 | 1844 ft | 281 kts | 281° |
| 2026-05-07 18:02 | 40.65761 | -73.87239 | 4189 ft | 247 kts | 233° |
| 2026-05-07 18:03 | 40.64452 | -73.88816 | 4240 ft | 279 kts | 219° |
| 2026-05-07 18:03 | 40.62700 | -73.90186 | 4158 ft | 290 kts | 194° |
| 2026-05-07 18:03 | 40.60878 | -73.90192 | 5053 ft | 252 kts | 158° |
| 2026-05-07 18:03 | 40.59424 | -73.88806 | 5985 ft | 275 kts | 121° |
| 2026-05-07 18:04 | 40.58583 | -73.86467 | 6960 ft | 292 kts | 110° |
| 2026-05-07 18:04 | 40.57869 | -73.83910 | 7829 ft | 303 kts | 111° |
| 2026-05-07 18:04 | 40.57100 | -73.81263 | 8642 ft | 316 kts | 115° |
| 2026-05-07 18:04 | 40.56246 | -73.78550 | 9449 ft | 325 kts | 118° |
| 2026-05-07 18:05 | 40.55299 | -73.75814 | 10229 ft | 336 kts | 124° |
| 2026-05-07 18:05 | 40.54126 | -73.72974 | 10993 ft | 372 kts | 126° |
| 2026-05-07 18:05 | 40.53244 | -73.70952 | 11503 ft | 399 kts | 127° |
| 2026-05-07 18:05 | 40.51253 | -73.66442 | 12564 ft | 454 kts | 126° |
| 2026-05-07 18:06 | 40.50180 | -73.63989 | 13106 ft | 480 kts | 126° |
| 2026-05-07 18:06 | 40.48462 | -73.60045 | 13889 ft | 511 kts | 126° |
| 2026-05-07 18:06 | 40.46682 | -73.55946 | 14604 ft | 518 kts | 126° |
| 2026-05-07 18:06 | 40.44879 | -73.51823 | 15329 ft | 525 kts | 126° |
| 2026-05-07 18:07 | 40.43038 | -73.47638 | 16067 ft | 534 kts | 126° |
| 2026-05-07 18:07 | 40.41166 | -73.43384 | 16831 ft | 542 kts | 126° |
| 2026-05-07 18:07 | 40.39268 | -73.39069 | 17622 ft | 550 kts | 127° |
| 2026-05-07 18:07 | 40.37339 | -73.34689 | 18378 ft | 559 kts | 127° |
| 2026-05-07 18:08 | 40.35378 | -73.30237 | 19073 ft | 568 kts | 127° |
| 2026-05-07 18:08 | 40.33191 | -73.25976 | 19800 ft | 556 kts | 142° |
| 2026-05-07 18:08 | 40.30322 | -73.22750 | 20592 ft | 533 kts | 160° |
| 2026-05-07 18:08 | 40.27014 | -73.20871 | 21425 ft | 507 kts | 178° |
| 2026-05-07 18:09 | 40.23651 | -73.20463 | 22307 ft | 479 kts | 196° |
| 2026-05-07 18:09 | 40.20482 | -73.21520 | 23271 ft | 456 kts | 213° |
| 2026-05-07 18:09 | 40.17685 | -73.23465 | 24030 ft | 456 kts | 216° |
| 2026-05-07 18:09 | 40.14915 | -73.25515 | 24748 ft | 460 kts | 216° |
| 2026-05-07 18:10 | 40.12082 | -73.27520 | 25472 ft | 467 kts | 214° |
| 2026-05-07 18:10 | 40.09193 | -73.29405 | 26187 ft | 474 kts | 213° |
| 2026-05-07 18:10 | 40.06174 | -73.31208 | 26933 ft | 480 kts | 212° |
| 2026-05-07 18:10 | 40.03072 | -73.32909 | 27693 ft | 486 kts | 210° |
| 2026-05-07 18:11 | 39.99902 | -73.34526 | 28449 ft | 492 kts | 210° |
| 2026-05-07 18:11 | 39.96681 | -73.36107 | 29204 ft | 497 kts | 209° |
| 2026-05-07 18:11 | 39.93421 | -73.37678 | 30009 ft | 501 kts | 209° |
| 2026-05-07 18:11 | 39.90155 | -73.39233 | 30703 ft | 496 kts | 209° |
| 2026-05-07 18:12 | 39.86946 | -73.40734 | 31412 ft | 486 kts | 208° |
| 2026-05-07 18:12 | 39.83735 | -73.42045 | 32175 ft | 482 kts | 206° |
| 2026-05-07 18:12 | 39.80518 | -73.43199 | 32968 ft | 477 kts | 206° |
| 2026-05-07 18:12 | 39.77332 | -73.44305 | 33776 ft | 472 kts | 206° |
| 2026-05-07 18:13 | 39.74169 | -73.45399 | 34511 ft | 469 kts | 206° |
| 2026-05-07 18:13 | 39.71028 | -73.46490 | 35238 ft | 466 kts | 206° |
| 2026-05-07 18:13 | 39.67886 | -73.47587 | 35666 ft | 471 kts | 206° |
| 2026-05-07 18:14 | 39.61474 | -73.49815 | 35808 ft | 480 kts | 206° |
| 2026-05-07 18:14 | 39.55000 | -73.52053 | 35872 ft | 483 kts | 206° |
| 2026-05-07 18:15 | 39.48505 | -73.54303 | 35906 ft | 484 kts | 206° |
| 2026-05-07 18:15 | 39.41980 | -73.56559 | 35920 ft | 486 kts | 206° |
| 2026-05-07 18:16 | 39.35446 | -73.58812 | 35925 ft | 487 kts | 206° |
| 2026-05-07 18:16 | 39.28893 | -73.61067 | 35927 ft | 488 kts | 205° |
| 2026-05-07 18:17 | 39.22318 | -73.63326 | 35924 ft | 489 kts | 205° |
| 2026-05-07 18:17 | 39.15727 | -73.65586 | 35921 ft | 493 kts | 205° |
| 2026-05-07 18:17 | 39.12370 | -73.66743 | 35948 ft | 507 kts | 205° |
| 2026-05-07 18:18 | 39.08886 | -73.67939 | 35992 ft | 528 kts | 205° |
| 2026-05-07 18:18 | 39.05262 | -73.69174 | 35998 ft | 549 kts | 204° |
| 2026-05-07 18:18 | 39.01497 | -73.70451 | 36010 ft | 569 kts | 204° |
| 2026-05-07 18:18 | 38.97611 | -73.71772 | 36028 ft | 588 kts | 204° |
| 2026-05-07 18:19 | 38.93589 | -73.73141 | 36024 ft | 607 kts | 203° |
| 2026-05-07 18:19 | 38.89436 | -73.74554 | 36020 ft | 627 kts | 203° |
| 2026-05-07 18:19 | 38.85155 | -73.76008 | 36012 ft | 645 kts | 203° |
| 2026-05-07 18:19 | 38.80811 | -73.77475 | 36206 ft | 649 kts | 203° |
| 2026-05-07 18:20 | 38.76422 | -73.78963 | 36369 ft | 655 kts | 203° |
| 2026-05-07 18:20 | 38.72001 | -73.80463 | 36554 ft | 661 kts | 203° |
| 2026-05-07 18:20 | 38.67527 | -73.81976 | 36744 ft | 668 kts | 203° |
| 2026-05-07 18:20 | 38.63021 | -73.83498 | 36955 ft | 674 kts | 203° |
| 2026-05-07 18:21 | 38.58516 | -73.85017 | 37177 ft | 681 kts | 203° |
| 2026-05-07 18:21 | 38.53912 | -73.86567 | 37422 ft | 688 kts | 203° |
| 2026-05-07 18:21 | 38.49252 | -73.88133 | 37663 ft | 696 kts | 203° |
| 2026-05-07 18:21 | 38.44545 | -73.89713 | 37904 ft | 704 kts | 203° |
| 2026-05-07 18:22 | 38.39782 | -73.91310 | 38176 ft | 711 kts | 203° |
| 2026-05-07 18:22 | 38.36542 | -73.92395 | 38344 ft | 716 kts | 203° |
| 2026-05-07 18:22 | 38.30121 | -73.94543 | 38672 ft | 726 kts | 203° |
| 2026-05-07 18:22 | 38.25201 | -73.96186 | 38925 ft | 734 kts | 203° |
| 2026-05-07 18:23 | 38.20230 | -73.97843 | 39188 ft | 743 kts | 203° |
| 2026-05-07 18:23 | 38.15198 | -73.99518 | 39434 ft | 752 kts | 203° |
| 2026-05-07 18:23 | 38.10110 | -74.01210 | 39722 ft | 760 kts | 203° |
| 2026-05-07 18:23 | 38.04959 | -74.02920 | 40017 ft | 770 kts | 203° |
| 2026-05-07 18:24 | 37.99749 | -74.04647 | 40321 ft | 779 kts | 202° |
| 2026-05-07 18:24 | 37.94473 | -74.06393 | 40623 ft | 788 kts | 202° |
| 2026-05-07 18:24 | 37.89137 | -74.08157 | 40949 ft | 797 kts | 202° |
| 2026-05-07 18:24 | 37.83732 | -74.09941 | 41301 ft | 808 kts | 202° |
| 2026-05-07 18:25 | 37.78253 | -74.11746 | 41694 ft | 819 kts | 202° |
| 2026-05-07 18:25 | 37.72693 | -74.13576 | 42104 ft | 831 kts | 202° |
| 2026-05-07 18:25 | 37.67056 | -74.15427 | 42560 ft | 845 kts | 202° |
| 2026-05-07 18:25 | 37.61321 | -74.17308 | 43060 ft | 859 kts | 202° |
| 2026-05-07 18:26 | 37.55484 | -74.19219 | 43593 ft | 873 kts | 202° |
| 2026-05-07 18:26 | 37.49554 | -74.21158 | 44118 ft | 888 kts | 202° |
| 2026-05-07 18:26 | 37.43529 | -74.23124 | 44629 ft | 903 kts | 202° |
| 2026-05-07 18:26 | 37.37481 | -74.25094 | 45102 ft | 916 kts | 202° |
| 2026-05-07 18:27 | 37.31258 | -74.27118 | 45590 ft | 930 kts | 202° |
| 2026-05-07 18:27 | 37.24953 | -74.29165 | 46014 ft | 943 kts | 202° |
| 2026-05-07 18:27 | 37.18558 | -74.31238 | 46384 ft | 956 kts | 202° |
| 2026-05-07 18:27 | 37.12077 | -74.33335 | 46736 ft | 968 kts | 202° |
| 2026-05-07 18:28 | 37.05525 | -74.35452 | 47089 ft | 979 kts | 201° |
| 2026-05-07 18:28 | 36.98884 | -74.37593 | 47425 ft | 991 kts | 201° |
| 2026-05-07 18:28 | 36.92173 | -74.39753 | 47738 ft | 1001 kts | 201° |
| 2026-05-07 18:28 | 36.85387 | -74.41932 | 48048 ft | 1012 kts | 201° |
| 2026-05-07 18:29 | 36.78543 | -74.44128 | 48337 ft | 1021 kts | 201° |
| 2026-05-07 18:29 | 36.71631 | -74.46340 | 48630 ft | 1030 kts | 201° |
| 2026-05-07 18:29 | 36.64653 | -74.48568 | 48898 ft | 1039 kts | 201° |
| 2026-05-07 18:29 | 36.57630 | -74.50808 | 49149 ft | 1047 kts | 201° |
| 2026-05-07 18:30 | 36.50535 | -74.53066 | 49406 ft | 1055 kts | 201° |
| 2026-05-07 18:30 | 36.43405 | -74.55331 | 49640 ft | 1061 kts | 201° |
| 2026-05-07 18:30 | 36.36229 | -74.57606 | 49829 ft | 1067 kts | 201° |
| 2026-05-07 18:30 | 36.29025 | -74.59886 | 50011 ft | 1070 kts | 200° |
| 2026-05-07 18:31 | 36.21806 | -74.62165 | 49983 ft | 1070 kts | 201° |
| 2026-05-07 18:31 | 36.07350 | -74.66719 | 50374 ft | 1074 kts | 200° |
| 2026-05-07 18:31 | 36.00099 | -74.68997 | 50878 ft | 1076 kts | 200° |
| 2026-05-07 18:32 | 35.92835 | -74.71273 | 51538 ft | 1078 kts | 200° |
| 2026-05-07 18:32 | 35.85581 | -74.73543 | 52288 ft | 1078 kts | 200° |
| 2026-05-07 18:32 | 35.78296 | -74.75818 | 52898 ft | 1080 kts | 200° |
| 2026-05-07 18:32 | 35.70999 | -74.78093 | 53227 ft | 1084 kts | 200° |
| 2026-05-07 18:33 | 35.63663 | -74.80375 | 53435 ft | 1090 kts | 200° |
| 2026-05-07 18:33 | 35.56301 | -74.82660 | 53843 ft | 1092 kts | 200° |
| 2026-05-07 18:33 | 35.48936 | -74.84942 | 54581 ft | 1090 kts | 200° |
| 2026-05-07 18:33 | 35.41594 | -74.87213 | 55468 ft | 1087 kts | 200° |
| 2026-05-07 18:34 | 35.34264 | -74.89477 | 56169 ft | 1086 kts | 200° |
| 2026-05-07 18:34 | 35.26920 | -74.91741 | 56495 ft | 1089 kts | 200° |
| 2026-05-07 18:34 | 35.19566 | -74.94003 | 56599 ft | 1094 kts | 200° |
| 2026-05-07 18:34 | 35.12171 | -74.96273 | 56799 ft | 1097 kts | 200° |
| 2026-05-07 18:35 | 35.04770 | -74.98540 | 57304 ft | 1096 kts | 200° |
| 2026-05-07 18:35 | 34.97487 | -75.01099 | 58045 ft | 1080 kts | 207° |
| 2026-05-07 18:35 | 34.90683 | -75.04768 | 58659 ft | 1063 kts | 214° |
| 2026-05-07 18:36 | 34.77834 | -75.13716 | 58441 ft | 1073 kts | 212° |
| 2026-05-07 18:36 | 34.71163 | -75.17871 | 58608 ft | 1075 kts | 214° |
| 2026-05-07 18:36 | 34.64517 | -75.22043 | 59086 ft | 1076 kts | 212° |
| 2026-05-07 18:36 | 34.57839 | -75.26150 | 59382 ft | 1077 kts | 212° |
| 2026-05-07 18:37 | 34.51155 | -75.30257 | 59554 ft | 1079 kts | 212° |
| 2026-05-07 18:37 | 34.44538 | -75.34316 | 59662 ft | 1081 kts | 212° |
| 2026-05-07 18:37 | 34.37817 | -75.38433 | 59727 ft | 1084 kts | 212° |
| 2026-05-07 18:38 | 34.24318 | -75.46687 | 59792 ft | 1090 kts | 212° |
| 2026-05-07 18:38 | 34.10801 | -75.54924 | 59836 ft | 1087 kts | 212° |
| 2026-05-07 18:39 | 33.97270 | -75.63141 | 59851 ft | 1089 kts | 212° |
| 2026-05-07 18:39 | 33.83739 | -75.71329 | 59873 ft | 1090 kts | 212° |
| 2026-05-07 18:40 | 33.70167 | -75.79512 | 59869 ft | 1091 kts | 212° |
| 2026-05-07 18:40 | 33.56588 | -75.87670 | 59881 ft | 1092 kts | 212° |
| 2026-05-07 18:41 | 33.42989 | -75.95812 | 59878 ft | 1093 kts | 212° |
| 2026-05-07 18:41 | 33.29355 | -76.03946 | 59896 ft | 1096 kts | 212° |
| 2026-05-07 18:42 | 33.15690 | -76.12069 | 59899 ft | 1099 kts | 212° |
| 2026-05-07 18:42 | 33.02002 | -76.20178 | 59903 ft | 1098 kts | 212° |
| 2026-05-07 18:43 | 32.88296 | -76.28269 | 59909 ft | 1099 kts | 212° |
| 2026-05-07 18:43 | 32.74583 | -76.36336 | 59921 ft | 1100 kts | 211° |
| 2026-05-07 18:44 | 32.60858 | -76.44383 | 59916 ft | 1100 kts | 211° |
| 2026-05-07 18:44 | 32.47126 | -76.52406 | 59920 ft | 1101 kts | 211° |
| 2026-05-07 18:45 | 32.33386 | -76.60406 | 59933 ft | 1101 kts | 211° |
| 2026-05-07 18:45 | 32.19622 | -76.68393 | 59938 ft | 1102 kts | 211° |
| 2026-05-07 18:46 | 32.05861 | -76.76351 | 59938 ft | 1102 kts | 211° |
| 2026-05-07 18:46 | 31.92084 | -76.84292 | 59943 ft | 1102 kts | 211° |
| 2026-05-07 18:47 | 31.78291 | -76.92215 | 59944 ft | 1103 kts | 211° |
| 2026-05-07 18:47 | 31.64601 | -77.00053 | 59952 ft | 1102 kts | 211° |
| 2026-05-07 18:48 | 31.50717 | -77.07975 | 59959 ft | 1102 kts | 210° |
| 2026-05-07 18:48 | 31.37011 | -77.15771 | 59970 ft | 1102 kts | 210° |
| 2026-05-07 18:49 | 31.23199 | -77.23601 | 59962 ft | 1104 kts | 210° |
| 2026-05-07 18:49 | 31.09387 | -77.31405 | 59969 ft | 1103 kts | 210° |
| 2026-05-07 18:50 | 30.95564 | -77.39190 | 59984 ft | 1103 kts | 210° |
| 2026-05-07 18:50 | 30.81738 | -77.46953 | 59984 ft | 1103 kts | 210° |
| 2026-05-07 18:51 | 30.67912 | -77.54690 | 59979 ft | 1103 kts | 210° |
| 2026-05-07 18:51 | 30.54074 | -77.62409 | 59984 ft | 1104 kts | 210° |
| 2026-05-07 18:52 | 30.40217 | -77.70114 | 59989 ft | 1105 kts | 209° |
| 2026-05-07 18:52 | 30.26346 | -77.77802 | 59989 ft | 1106 kts | 209° |
| 2026-05-07 18:53 | 30.12469 | -77.85470 | 59998 ft | 1106 kts | 209° |
| 2026-05-07 18:53 | 29.98580 | -77.93120 | 59995 ft | 1107 kts | 209° |
| 2026-05-07 18:54 | 29.84679 | -78.00753 | 59999 ft | 1107 kts | 209° |
| 2026-05-07 18:54 | 29.73027 | -78.07133 | 59997 ft | 1107 kts | 209° |
| 2026-05-07 18:55 | 29.59211 | -78.14677 | 59996 ft | 1106 kts | 209° |
| 2026-05-07 18:55 | 29.45303 | -78.22247 | 60004 ft | 1106 kts | 208° |
| 2026-05-07 18:56 | 29.31405 | -78.29789 | 60010 ft | 1106 kts | 208° |
| 2026-05-07 18:56 | 29.17491 | -78.37317 | 60005 ft | 1105 kts | 208° |
| 2026-05-07 18:57 | 29.03585 | -78.44818 | 60013 ft | 1106 kts | 208° |
| 2026-05-07 18:57 | 28.89668 | -78.52302 | 60013 ft | 1105 kts | 208° |
| 2026-05-07 18:58 | 28.75745 | -78.59768 | 60019 ft | 1106 kts | 208° |
| 2026-05-07 18:58 | 28.61823 | -78.67211 | 60021 ft | 1106 kts | 208° |
| 2026-05-07 18:59 | 28.47892 | -78.74636 | 60020 ft | 1105 kts | 208° |
| 2026-05-07 18:59 | 28.33958 | -78.82042 | 60021 ft | 1105 kts | 208° |
| 2026-05-07 19:00 | 28.20045 | -78.89415 | 60017 ft | 1105 kts | 207° |
| 2026-05-07 19:00 | 28.06113 | -78.96777 | 60024 ft | 1105 kts | 207° |
| 2026-05-07 19:01 | 27.91710 | -79.02945 | 60195 ft | 1115 kts | 195° |
| 2026-05-07 19:01 | 27.76538 | -79.06672 | 60168 ft | 1113 kts | 196° |
| 2026-05-07 19:02 | 27.61652 | -79.10803 | 60101 ft | 1115 kts | 196° |
| 2026-05-07 19:02 | 27.46612 | -79.15035 | 60046 ft | 1115 kts | 196° |
| 2026-05-07 19:03 | 27.31548 | -79.19257 | 60034 ft | 1115 kts | 196° |
| 2026-05-07 19:03 | 27.16479 | -79.23465 | 60028 ft | 1117 kts | 196° |
| 2026-05-07 19:04 | 27.01406 | -79.27662 | 60025 ft | 1117 kts | 196° |
| 2026-05-07 19:04 | 26.86300 | -79.31855 | 60021 ft | 1117 kts | 196° |
| 2026-05-07 19:05 | 26.71209 | -79.36033 | 60027 ft | 1118 kts | 196° |
| 2026-05-07 19:05 | 26.56113 | -79.40201 | 60026 ft | 1118 kts | 196° |
| 2026-05-07 19:06 | 26.41006 | -79.44361 | 60032 ft | 1118 kts | 196° |
| 2026-05-07 19:06 | 26.18340 | -79.50581 | 60034 ft | 1118 kts | 196° |
| 2026-05-07 19:07 | 26.03235 | -79.54712 | 60024 ft | 1118 kts | 196° |
| 2026-05-07 19:07 | 25.88142 | -79.58829 | 60029 ft | 1117 kts | 195° |
| 2026-05-07 19:08 | 25.73053 | -79.62935 | 60032 ft | 1117 kts | 195° |
| 2026-05-07 19:08 | 25.57953 | -79.67032 | 60026 ft | 1116 kts | 195° |
| 2026-05-07 19:09 | 25.42863 | -79.71116 | 60020 ft | 1116 kts | 195° |
| 2026-05-07 19:09 | 25.28414 | -79.77050 | 60224 ft | 1106 kts | 212° |
| 2026-05-07 19:10 | 25.16265 | -79.87271 | 60373 ft | 1098 kts | 227° |
| 2026-05-07 19:10 | 25.05845 | -79.99410 | 60199 ft | 1096 kts | 228° |
| 2026-05-07 19:11 | 24.95281 | -80.11570 | 60095 ft | 1098 kts | 227° |
| 2026-05-07 19:11 | 24.84071 | -80.23158 | 60175 ft | 1102 kts | 219° |
| 2026-05-07 19:12 | 24.72349 | -80.33847 | 60105 ft | 1100 kts | 221° |
| 2026-05-07 19:12 | 24.60524 | -80.44738 | 60063 ft | 1103 kts | 221° |
| 2026-05-07 19:13 | 24.48835 | -80.55471 | 60051 ft | 1103 kts | 221° |
| 2026-05-07 19:13 | 24.36963 | -80.66340 | 60040 ft | 1103 kts | 221° |
| 2026-05-07 19:14 | 24.25238 | -80.77046 | 60027 ft | 1106 kts | 221° |
| 2026-05-07 19:14 | 24.13417 | -80.87813 | 60031 ft | 1106 kts | 221° |
| 2026-05-07 19:15 | 24.01576 | -80.98584 | 60020 ft | 1106 kts | 223° |
| 2026-05-07 19:15 | 23.96094 | -81.04448 | 60138 ft | 1103 kts | 231° |
| 2026-05-07 19:15 | 23.91421 | -81.11233 | 60232 ft | 1101 kts | 240° |
| 2026-05-07 19:16 | 23.85266 | -81.26331 | 60379 ft | 1097 kts | 257° |
| 2026-05-07 19:16 | 23.83494 | -81.42790 | 60455 ft | 1095 kts | 274° |
| 2026-05-07 19:17 | 23.86026 | -81.59160 | 60397 ft | 1095 kts | 282° |
| 2026-05-07 19:17 | 23.87566 | -81.67293 | 60295 ft | 1093 kts | 279° |
| 2026-05-07 19:17 | 23.88675 | -81.75506 | 60219 ft | 1094 kts | 276° |
| 2026-05-07 19:18 | 23.89671 | -81.92102 | 60120 ft | 1094 kts | 271° |
| 2026-05-07 19:18 | 23.89791 | -82.08718 | 60045 ft | 1095 kts | 270° |
| 2026-05-07 19:19 | 23.89376 | -82.25344 | 60111 ft | 1095 kts | 263° |
| 2026-05-07 19:19 | 23.87763 | -82.41908 | 60088 ft | 1095 kts | 264° |
| 2026-05-07 19:20 | 23.86253 | -82.58467 | 60042 ft | 1097 kts | 264° |
| 2026-05-07 19:20 | 23.84727 | -82.75037 | 60031 ft | 1097 kts | 264° |
| 2026-05-07 19:21 | 23.83178 | -82.91614 | 60028 ft | 1096 kts | 264° |
| 2026-05-07 19:21 | 23.81609 | -83.08192 | 60017 ft | 1098 kts | 264° |
| 2026-05-07 19:22 | 23.80023 | -83.24766 | 60004 ft | 1098 kts | 264° |
| 2026-05-07 19:22 | 23.78426 | -83.41250 | 60001 ft | 1098 kts | 264° |
| 2026-05-07 19:23 | 23.76804 | -83.57818 | 60002 ft | 1099 kts | 264° |
| 2026-05-07 19:23 | 23.75162 | -83.74402 | 60001 ft | 1099 kts | 264° |
| 2026-05-07 19:24 | 23.73501 | -83.90994 | 60006 ft | 1099 kts | 264° |
| 2026-05-07 19:24 | 23.71825 | -84.07566 | 60000 ft | 1100 kts | 264° |
| 2026-05-07 19:25 | 23.70128 | -84.24152 | 59991 ft | 1100 kts | 264° |
| 2026-05-07 19:25 | 23.68414 | -84.40731 | 60002 ft | 1100 kts | 264° |
| 2026-05-07 19:26 | 23.66681 | -84.57319 | 59995 ft | 1100 kts | 264° |
| 2026-05-07 19:26 | 23.64932 | -84.73889 | 59996 ft | 1100 kts | 264° |
| 2026-05-07 19:27 | 23.63164 | -84.90471 | 59995 ft | 1100 kts | 264° |
| 2026-05-07 19:27 | 23.61379 | -85.07033 | 59995 ft | 1100 kts | 264° |
| 2026-05-07 19:28 | 23.59575 | -85.23608 | 59993 ft | 1100 kts | 264° |
| 2026-05-07 19:28 | 23.57756 | -85.40158 | 59989 ft | 1100 kts | 263° |
| 2026-05-07 19:29 | 23.55918 | -85.56716 | 59989 ft | 1100 kts | 263° |
| 2026-05-07 19:29 | 23.54063 | -85.73259 | 59992 ft | 1100 kts | 263° |
| 2026-05-07 19:30 | 23.52191 | -85.89798 | 59989 ft | 1100 kts | 263° |
| 2026-05-07 19:30 | 23.50301 | -86.06340 | 59992 ft | 1099 kts | 263° |
| 2026-05-07 19:31 | 23.48394 | -86.22869 | 59996 ft | 1100 kts | 263° |
| 2026-05-07 19:31 | 23.46485 | -86.39262 | 59975 ft | 1099 kts | 263° |
| 2026-05-07 19:32 | 23.44544 | -86.55771 | 59984 ft | 1098 kts | 263° |
| 2026-05-07 19:32 | 23.42586 | -86.72279 | 59983 ft | 1099 kts | 263° |
| 2026-05-07 19:33 | 23.40614 | -86.88757 | 59978 ft | 1097 kts | 263° |
| 2026-05-07 19:33 | 23.38625 | -87.05218 | 59972 ft | 1097 kts | 263° |
| 2026-05-07 19:34 | 23.36618 | -87.21685 | 59974 ft | 1097 kts | 263° |
| 2026-05-07 19:34 | 23.34597 | -87.38122 | 59966 ft | 1096 kts | 263° |
| 2026-05-07 19:35 | 23.32559 | -87.54555 | 59968 ft | 1095 kts | 263° |
| 2026-05-07 19:35 | 23.30504 | -87.70975 | 59960 ft | 1095 kts | 263° |
| 2026-05-07 19:36 | 23.28434 | -87.87378 | 59959 ft | 1094 kts | 263° |
| 2026-05-07 19:36 | 23.26348 | -88.03768 | 59958 ft | 1094 kts | 263° |
| 2026-05-07 19:37 | 23.24232 | -88.20257 | 59952 ft | 1093 kts | 262° |
| 2026-05-07 19:37 | 23.22128 | -88.36507 | 59956 ft | 1092 kts | 262° |
| 2026-05-07 19:38 | 23.19997 | -88.52840 | 59958 ft | 1091 kts | 262° |
| 2026-05-07 19:38 | 23.17849 | -88.69163 | 59948 ft | 1091 kts | 262° |
| 2026-05-07 19:39 | 23.15685 | -88.85472 | 59942 ft | 1090 kts | 262° |
| 2026-05-07 19:39 | 23.13861 | -88.99126 | 59943 ft | 1090 kts | 262° |
| 2026-05-07 19:40 | 23.11669 | -89.15407 | 59946 ft | 1089 kts | 262° |
| 2026-05-07 19:40 | 23.09477 | -89.31563 | 59935 ft | 1088 kts | 262° |
| 2026-05-07 19:41 | 23.07254 | -89.47817 | 59937 ft | 1088 kts | 262° |
| 2026-05-07 19:41 | 23.05016 | -89.64053 | 59932 ft | 1087 kts | 262° |
| 2026-05-07 19:42 | 23.02762 | -89.80279 | 59935 ft | 1087 kts | 262° |
| 2026-05-07 19:42 | 23.00491 | -89.96500 | 59928 ft | 1086 kts | 261° |
| 2026-05-07 19:43 | 22.96223 | -90.12184 | 60123 ft | 1090 kts | 246° |
| 2026-05-07 19:43 | 22.89543 | -90.26953 | 60037 ft | 1088 kts | 248° |
| 2026-05-07 19:44 | 22.83583 | -90.42050 | 60030 ft | 1089 kts | 248° |
| 2026-05-07 19:44 | 22.77681 | -90.57148 | 59978 ft | 1090 kts | 248° |
| 2026-05-07 19:45 | 22.71747 | -90.72255 | 59951 ft | 1089 kts | 248° |
| 2026-05-07 19:45 | 22.65797 | -90.87336 | 59940 ft | 1089 kts | 248° |
| 2026-05-07 19:46 | 22.59830 | -91.02407 | 59932 ft | 1090 kts | 248° |
| 2026-05-07 19:46 | 22.53844 | -91.17476 | 59917 ft | 1089 kts | 248° |
| 2026-05-07 19:47 | 22.47844 | -91.32531 | 59917 ft | 1090 kts | 248° |
| 2026-05-07 19:47 | 22.41835 | -91.47563 | 59911 ft | 1090 kts | 248° |
| 2026-05-07 19:48 | 22.35807 | -91.62593 | 59912 ft | 1090 kts | 247° |
| 2026-05-07 19:48 | 22.29761 | -91.77619 | 59902 ft | 1090 kts | 247° |
| 2026-05-07 19:49 | 22.23745 | -91.92525 | 59903 ft | 1090 kts | 247° |
| 2026-05-07 19:49 | 22.17634 | -92.07620 | 59898 ft | 1090 kts | 247° |
| 2026-05-07 19:50 | 22.11550 | -92.22600 | 59903 ft | 1090 kts | 247° |
| 2026-05-07 19:50 | 22.05497 | -92.37459 | 59900 ft | 1091 kts | 247° |
| 2026-05-07 19:51 | 21.99380 | -92.52427 | 59895 ft | 1090 kts | 247° |
| 2026-05-07 19:51 | 21.93255 | -92.67369 | 59885 ft | 1091 kts | 247° |
| 2026-05-07 19:52 | 21.87111 | -92.82310 | 59883 ft | 1091 kts | 247° |
| 2026-05-07 19:52 | 21.80954 | -92.97241 | 59880 ft | 1092 kts | 247° |
| 2026-05-07 19:53 | 21.74776 | -93.12175 | 59879 ft | 1092 kts | 246° |
| 2026-05-07 19:53 | 21.68589 | -93.27086 | 59880 ft | 1092 kts | 246° |
| 2026-05-07 19:54 | 21.62388 | -93.41986 | 59879 ft | 1092 kts | 246° |
| 2026-05-07 19:54 | 21.56167 | -93.56887 | 59872 ft | 1093 kts | 246° |
| 2026-05-07 19:55 | 21.49935 | -93.71773 | 59874 ft | 1093 kts | 246° |
| 2026-05-07 19:55 | 21.43689 | -93.86647 | 59873 ft | 1093 kts | 246° |
| 2026-05-07 19:56 | 21.37426 | -94.01517 | 59865 ft | 1094 kts | 246° |
| 2026-05-07 19:56 | 21.31143 | -94.16391 | 59866 ft | 1095 kts | 246° |
| 2026-05-07 19:57 | 21.24847 | -94.31252 | 59856 ft | 1094 kts | 246° |
| 2026-05-07 19:57 | 21.18539 | -94.46099 | 59855 ft | 1095 kts | 246° |
| 2026-05-07 19:58 | 21.12215 | -94.60939 | 59854 ft | 1095 kts | 246° |
| 2026-05-07 19:58 | 21.05876 | -94.75773 | 59842 ft | 1094 kts | 246° |
| 2026-05-07 19:59 | 20.99557 | -94.90516 | 59835 ft | 1072 kts | 246° |
| 2026-05-07 19:59 | 20.96480 | -94.97681 | 59836 ft | 1046 kts | 246° |
| 2026-05-07 19:59 | 20.93477 | -95.04662 | 59835 ft | 1022 kts | 246° |
| 2026-05-07 20:00 | 20.90541 | -95.11481 | 59844 ft | 998 kts | 246° |
| 2026-05-07 20:00 | 20.87668 | -95.18143 | 59841 ft | 974 kts | 246° |
| 2026-05-07 20:00 | 20.84863 | -95.24641 | 59555 ft | 955 kts | 246° |
| 2026-05-07 20:00 | 20.82094 | -95.31046 | 58875 ft | 942 kts | 246° |
| 2026-05-07 20:01 | 20.79371 | -95.37334 | 58710 ft | 920 kts | 246° |
| 2026-05-07 20:01 | 20.76717 | -95.43461 | 58693 ft | 897 kts | 246° |
| 2026-05-07 20:01 | 20.74165 | -95.49344 | 58684 ft | 873 kts | 246° |
| 2026-05-07 20:01 | 20.71646 | -95.55144 | 58430 ft | 852 kts | 246° |
| 2026-05-07 20:02 | 20.69175 | -95.60826 | 57741 ft | 837 kts | 245° |
| 2026-05-07 20:02 | 20.66709 | -95.66493 | 57036 ft | 821 kts | 246° |
| 2026-05-07 20:02 | 20.64355 | -95.71895 | 56360 ft | 805 kts | 245° |
| 2026-05-07 20:02 | 20.62017 | -95.77256 | 55690 ft | 789 kts | 246° |
| 2026-05-07 20:03 | 20.59724 | -95.82508 | 55018 ft | 777 kts | 245° |
| 2026-05-07 20:03 | 20.57440 | -95.87734 | 54353 ft | 778 kts | 245° |
| 2026-05-07 20:03 | 20.55151 | -95.92967 | 53690 ft | 776 kts | 245° |
| 2026-05-07 20:03 | 20.52869 | -95.98177 | 53007 ft | 775 kts | 245° |
| 2026-05-07 20:04 | 20.50594 | -96.03368 | 52329 ft | 768 kts | 245° |
| 2026-05-07 20:04 | 20.48342 | -96.08499 | 51639 ft | 760 kts | 245° |
| 2026-05-07 20:04 | 20.46118 | -96.13564 | 50945 ft | 750 kts | 245° |
| 2026-05-07 20:04 | 20.43919 | -96.18565 | 50257 ft | 740 kts | 245° |
| 2026-05-07 20:05 | 20.41746 | -96.23505 | 49564 ft | 730 kts | 245° |
| 2026-05-07 20:05 | 20.39603 | -96.28370 | 48872 ft | 720 kts | 245° |
| 2026-05-07 20:05 | 20.37489 | -96.33167 | 48168 ft | 710 kts | 245° |
| 2026-05-07 20:05 | 20.35403 | -96.37895 | 47468 ft | 701 kts | 245° |
| 2026-05-07 20:06 | 20.33343 | -96.42561 | 46762 ft | 691 kts | 245° |
| 2026-05-07 20:06 | 20.31309 | -96.47162 | 46052 ft | 682 kts | 245° |
| 2026-05-07 20:06 | 20.29301 | -96.51701 | 45347 ft | 673 kts | 245° |
| 2026-05-07 20:06 | 20.27315 | -96.56189 | 44596 ft | 666 kts | 245° |
| 2026-05-07 20:07 | 20.25354 | -96.60615 | 43697 ft | 656 kts | 245° |
| 2026-05-07 20:07 | 20.23427 | -96.64961 | 42867 ft | 645 kts | 245° |
| 2026-05-07 20:07 | 20.21523 | -96.69250 | 42053 ft | 636 kts | 245° |
| 2026-05-07 20:07 | 20.19680 | -96.73491 | 41268 ft | 628 kts | 248° |
| 2026-05-07 20:08 | 20.18149 | -96.77815 | 40520 ft | 620 kts | 251° |
| 2026-05-07 20:08 | 20.16750 | -96.82137 | 39793 ft | 614 kts | 251° |
| 2026-05-07 20:08 | 20.15391 | -96.86421 | 39066 ft | 608 kts | 251° |
| 2026-05-07 20:08 | 20.14053 | -96.90664 | 38348 ft | 602 kts | 251° |
| 2026-05-07 20:09 | 20.12722 | -96.94874 | 37535 ft | 597 kts | 251° |
| 2026-05-07 20:09 | 20.11397 | -96.99050 | 36764 ft | 593 kts | 251° |
| 2026-05-07 20:09 | 20.10089 | -97.03165 | 36012 ft | 580 kts | 251° |
| 2026-05-07 20:10 | 20.07570 | -97.11074 | 35067 ft | 561 kts | 251° |
| 2026-05-07 20:10 | 20.06330 | -97.14961 | 34980 ft | 541 kts | 251° |
| 2026-05-07 20:10 | 20.05130 | -97.18722 | 34956 ft | 536 kts | 251° |
| 2026-05-07 20:11 | 20.02706 | -97.26304 | 34907 ft | 540 kts | 251° |
| 2026-05-07 20:11 | 20.00287 | -97.33862 | 34904 ft | 540 kts | 250° |
| 2026-05-07 20:12 | 19.97877 | -97.41377 | 34917 ft | 541 kts | 250° |
| 2026-05-07 20:12 | 19.95445 | -97.48951 | 34931 ft | 542 kts | 250° |
| 2026-05-07 20:13 | 19.93007 | -97.56531 | 34952 ft | 542 kts | 250° |
| 2026-05-07 20:13 | 19.90563 | -97.64111 | 34957 ft | 543 kts | 250° |
| 2026-05-07 20:14 | 19.88113 | -97.71705 | 34947 ft | 543 kts | 250° |
| 2026-05-07 20:14 | 19.85656 | -97.79302 | 34939 ft | 545 kts | 250° |
| 2026-05-07 20:15 | 19.83190 | -97.86922 | 34982 ft | 545 kts | 250° |
| 2026-05-07 20:15 | 19.80723 | -97.94526 | 34997 ft | 545 kts | 250° |
| 2026-05-07 20:16 | 19.78251 | -98.02139 | 34995 ft | 546 kts | 250° |
| 2026-05-07 20:16 | 19.75772 | -98.09755 | 34987 ft | 546 kts | 250° |
| 2026-05-07 20:17 | 19.73290 | -98.17371 | 34984 ft | 546 kts | 250° |
| 2026-05-07 20:17 | 19.70802 | -98.24995 | 34974 ft | 546 kts | 250° |
| 2026-05-07 20:18 | 19.68313 | -98.32608 | 34977 ft | 546 kts | 250° |
| 2026-05-07 20:18 | 19.65823 | -98.40213 | 34962 ft | 545 kts | 250° |
| 2026-05-07 20:19 | 19.63332 | -98.47807 | 34954 ft | 545 kts | 250° |
| 2026-05-07 20:19 | 19.60836 | -98.55405 | 34947 ft | 546 kts | 250° |
| 2026-05-07 20:20 | 19.58351 | -98.62957 | 34943 ft | 546 kts | 250° |
| 2026-05-07 20:20 | 19.55847 | -98.70556 | 34959 ft | 546 kts | 250° |
| 2026-05-07 20:21 | 19.53338 | -98.78158 | 35031 ft | 546 kts | 250° |
| 2026-05-07 20:21 | 19.50826 | -98.85757 | 35123 ft | 546 kts | 250° |
| 2026-05-07 20:22 | 19.48310 | -98.93354 | 35220 ft | 546 kts | 250° |
| 2026-05-07 20:22 | 19.45789 | -99.00956 | 35281 ft | 547 kts | 250° |
| 2026-05-07 20:23 | 19.42254 | -99.07971 | 35372 ft | 544 kts | 224° |
| 2026-05-07 20:23 | 19.39239 | -99.10390 | 35426 ft | 546 kts | 207° |
| 2026-05-07 20:23 | 19.35671 | -99.11735 | 35456 ft | 549 kts | 190° |
| 2026-05-07 20:23 | 19.31854 | -99.11888 | 35432 ft | 553 kts | 173° |
| 2026-05-07 20:24 | 19.28027 | -99.11338 | 35333 ft | 553 kts | 181° |
| 2026-05-07 20:24 | 19.24220 | -99.11654 | 35301 ft | 549 kts | 194° |
| 2026-05-07 20:24 | 19.20507 | -99.12616 | 35197 ft | 550 kts | 194° |
| 2026-05-07 20:25 | 19.13050 | -99.14443 | 35029 ft | 550 kts | 194° |
| 2026-05-07 20:25 | 19.05488 | -99.15615 | 34998 ft | 552 kts | 184° |
| 2026-05-07 20:26 | 18.97845 | -99.16300 | 35018 ft | 551 kts | 187° |
| 2026-05-07 20:26 | 18.90218 | -99.17183 | 35036 ft | 551 kts | 187° |
| 2026-05-07 20:27 | 18.82592 | -99.18055 | 35051 ft | 551 kts | 187° |
| 2026-05-07 20:27 | 18.76263 | -99.18775 | 35035 ft | 551 kts | 187° |
| 2026-05-07 20:28 | 18.68634 | -99.19642 | 34986 ft | 551 kts | 187° |
| 2026-05-07 20:28 | 18.61010 | -99.20507 | 34920 ft | 551 kts | 187° |
| 2026-05-07 20:29 | 18.53395 | -99.21371 | 34842 ft | 551 kts | 187° |
| 2026-05-07 20:29 | 18.45766 | -99.22235 | 34771 ft | 552 kts | 187° |
| 2026-05-07 20:30 | 18.38123 | -99.23100 | 34389 ft | 557 kts | 187° |
| 2026-05-07 20:30 | 18.34246 | -99.23539 | 33690 ft | 562 kts | 186° |
| 2026-05-07 20:30 | 18.30355 | -99.23979 | 32923 ft | 563 kts | 186° |
| 2026-05-07 20:30 | 18.26451 | -99.24419 | 32174 ft | 565 kts | 186° |
| 2026-05-07 20:31 | 18.22537 | -99.24862 | 31448 ft | 567 kts | 186° |
| 2026-05-07 20:31 | 18.18603 | -99.25306 | 30736 ft | 569 kts | 186° |
| 2026-05-07 20:31 | 18.14663 | -99.25751 | 30040 ft | 571 kts | 186° |
| 2026-05-07 20:31 | 18.10701 | -99.26198 | 29288 ft | 573 kts | 186° |
| 2026-05-07 20:32 | 18.06731 | -99.26645 | 28504 ft | 574 kts | 186° |
| 2026-05-07 20:32 | 18.02810 | -99.27087 | 27762 ft | 575 kts | 186° |
| 2026-05-07 20:32 | 17.98902 | -99.27528 | 27012 ft | 550 kts | 186° |
| 2026-05-07 20:32 | 17.95195 | -99.27946 | 26271 ft | 524 kts | 185° |
| 2026-05-07 20:33 | 17.91640 | -99.28346 | 25562 ft | 505 kts | 185° |
| 2026-05-07 20:33 | 17.88176 | -99.28735 | 24871 ft | 498 kts | 185° |
| 2026-05-07 20:33 | 17.84749 | -99.29120 | 24185 ft | 492 kts | 185° |
| 2026-05-07 20:33 | 17.81364 | -99.29502 | 23517 ft | 486 kts | 185° |
| 2026-05-07 20:34 | 17.78033 | -99.29875 | 22757 ft | 478 kts | 184° |
| 2026-05-07 20:34 | 17.74729 | -99.30244 | 22020 ft | 476 kts | 185° |
| 2026-05-07 20:34 | 17.71453 | -99.30613 | 21295 ft | 471 kts | 185° |
| 2026-05-07 20:34 | 17.68223 | -99.30976 | 20576 ft | 466 kts | 185° |
| 2026-05-07 20:35 | 17.65018 | -99.31336 | 19891 ft | 462 kts | 185° |
| 2026-05-07 20:35 | 17.61829 | -99.31694 | 19198 ft | 459 kts | 185° |
| 2026-05-07 20:35 | 17.58664 | -99.32048 | 18522 ft | 455 kts | 185° |
| 2026-05-07 20:35 | 17.55531 | -99.32400 | 17799 ft | 452 kts | 185° |
| 2026-05-07 20:36 | 17.52416 | -99.32749 | 17035 ft | 449 kts | 185° |
| 2026-05-07 20:36 | 17.49341 | -99.33174 | 16305 ft | 445 kts | 190° |
| 2026-05-07 20:36 | 17.46362 | -99.33997 | 15592 ft | 437 kts | 194° |
| 2026-05-07 20:36 | 17.43478 | -99.34905 | 14901 ft | 428 kts | 195° |
| 2026-05-07 20:37 | 17.40667 | -99.35822 | 14245 ft | 420 kts | 195° |
| 2026-05-07 20:37 | 17.37901 | -99.36730 | 13578 ft | 414 kts | 195° |
| 2026-05-07 20:37 | 17.35179 | -99.37620 | 12839 ft | 407 kts | 195° |
| 2026-05-07 20:37 | 17.32493 | -99.38493 | 12322 ft | 398 kts | 195° |
| 2026-05-07 20:38 | 17.29906 | -99.39335 | 12119 ft | 381 kts | 195° |
| 2026-05-07 20:38 | 17.27404 | -99.40147 | 12005 ft | 376 kts | 195° |
| 2026-05-07 20:38 | 17.24902 | -99.40956 | 11954 ft | 376 kts | 195° |
| 2026-05-07 20:38 | 17.22408 | -99.41766 | 11955 ft | 375 kts | 195° |
| 2026-05-07 20:39 | 17.19912 | -99.42576 | 11876 ft | 375 kts | 195° |
| 2026-05-07 20:39 | 17.17393 | -99.43390 | 11184 ft | 379 kts | 195° |
| 2026-05-07 20:39 | 17.14881 | -99.44203 | 10475 ft | 378 kts | 196° |
| 2026-05-07 20:39 | 17.12374 | -99.45018 | 9797 ft | 377 kts | 196° |
| 2026-05-07 20:40 | 17.09866 | -99.45831 | 9049 ft | 377 kts | 196° |
| 2026-05-07 20:40 | 17.07865 | -99.46481 | 8527 ft | 375 kts | 196° |
| 2026-05-07 20:40 | 17.05368 | -99.47290 | 8138 ft | 364 kts | 196° |
| 2026-05-07 20:40 | 17.03003 | -99.48054 | 8014 ft | 348 kts | 197° |
| 2026-05-07 20:41 | 17.00745 | -99.48785 | 8040 ft | 332 kts | 197° |
| 2026-05-07 20:41 | 16.98592 | -99.49484 | 8045 ft | 318 kts | 196° |
| 2026-05-07 20:41 | 16.96518 | -99.50152 | 8048 ft | 307 kts | 196° |
| 2026-05-07 20:41 | 16.94514 | -99.50799 | 7895 ft | 302 kts | 196° |
| 2026-05-07 20:42 | 16.92446 | -99.51463 | 7249 ft | 316 kts | 197° |
| 2026-05-07 20:42 | 16.90316 | -99.52152 | 6577 ft | 326 kts | 197° |
| 2026-05-07 20:42 | 16.88154 | -99.52867 | 5938 ft | 334 kts | 198° |
| 2026-05-07 20:42 | 16.85924 | -99.53604 | 5237 ft | 339 kts | 198° |
| 2026-05-07 20:43 | 16.83662 | -99.54336 | 4608 ft | 341 kts | 199° |
| 2026-05-07 20:43 | 16.81415 | -99.55043 | 4281 ft | 332 kts | 198° |
| 2026-05-07 20:43 | 16.79248 | -99.55716 | 4128 ft | 318 kts | 198° |
| 2026-05-07 20:43 | 16.77177 | -99.56352 | 4055 ft | 302 kts | 198° |
| 2026-05-07 20:44 | 16.75176 | -99.56960 | 3553 ft | 303 kts | 198° |
| 2026-05-07 20:44 | 16.73125 | -99.57592 | 2953 ft | 310 kts | 198° |
| 2026-05-07 20:44 | 16.71132 | -99.58370 | 2650 ft | 301 kts | 216° |
| 2026-05-07 20:44 | 16.69791 | -99.59918 | 2526 ft | 287 kts | 248° |
| 2026-05-07 20:45 | 16.69497 | -99.61906 | 2405 ft | 274 kts | 281° |
| 2026-05-07 20:45 | 16.70314 | -99.63636 | 2249 ft | 267 kts | 313° |
| 2026-05-07 20:45 | 16.71630 | -99.64971 | 1839 ft | 267 kts | 306° |
| 2026-05-07 20:45 | 16.72643 | -99.66576 | 1380 ft | 260 kts | 296° |
| 2026-05-07 20:46 | 16.73418 | -99.68212 | 1002 ft | 245 kts | 289° |
| 2026-05-07 20:46 | 16.73984 | -99.69815 | 694 ft | 225 kts | 287° |
| 2026-05-07 20:46 | 16.74390 | -99.71088 | 495 ft | 201 kts | 285° |
| 2026-05-07 20:46 | 16.74757 | -99.72303 | 255 ft | 185 kts | 284° |
| 2026-05-07 20:47 | 16.75138 | -99.73529 | 37 ft | 173 kts | 284° |
| 2026-05-07 20:47 | 16.75458 | -99.74594 | 25 ft | 133 kts | 290° |
| 2026-05-07 20:47 | 16.75659 | -99.75235 | 27 ft | 55 kts | 285° |
| 2026-05-07 20:47 | 16.75739 | -99.75493 | 28 ft | 28 kts | 289° |
| 2026-05-07 20:48 | 16.75793 | -99.75601 | 28 ft | 12 kts | 325° |
| 2026-05-07 20:48 | 16.75841 | -99.75582 | 27 ft | 7 kts | 57° |
| 2026-05-07 20:48 | 16.75869 | -99.75525 | 26 ft | 12 kts | 66° |
| 2026-05-07 20:48 | 16.75928 | -99.75425 | 25 ft | 16 kts | 32° |
| 2026-05-07 20:49 | 16.76019 | -99.75391 | 24 ft | 11 kts | 18° |
| 2026-05-07 20:49 | 16.76075 | -99.75372 | 24 ft | 6 kts | 19° |
| 2026-05-07 20:49 | 16.76080 | -99.75370 | 24 ft | 0 kts | 19° |